Estación Meteorológica Peña el Pijo (Robertgarden) [ 07/19/24 13:28:49 CEST ]

Fecha Hora Presion(HPa) Temp (°C) Humedad % Rocio (°C) Viento ( m/s) Direccion Lluvia 1Hora(mm) Lluvia 24H(mm) LLuvia Total(mm)
2008-Jul-24 01:05:15 1014.600 16.9 68 10.9       1.03 232.56
2008-Jul-24 02:05:14 1014.200 18.2 65 11.5       1.03 232.56
2008-Jul-24 03:05:16 1013.700 19.3 58 10.8       1.03 232.56
2008-Jul-24 04:05:18 1013.300 17.5 64 10.6       1.03 232.56
2008-Jul-24 05:05:11 1013.100 15.9 70 10.5       1.03 232.56
2008-Jul-24 06:05:11 1013.200 14.9 72 9.9       1.03 232.56
2008-Jul-24 07:05:17 1013.200 13.9 74 9.3       1.03 232.56
2008-Jul-24 08:05:18 1012.800 14.5 76 10.3       1.03 232.56
2008-Jul-24 09:05:26 1012.700 20.1 62 12.6       1.03 232.56
2008-Jul-24 10:05:17 1012.400 25.1 47 13.0       1.03 232.56
2008-Jul-24 11:05:14 1012.000 31.8 30 12.1       1.03 232.56
2008-Jul-24 12:05:11 1011.800 34.9 23 10.5       1.03 232.56
2008-Jul-24 13:05:17 1011.700 36.9 19 9.3       1.03 232.56
2008-Jul-24 14:05:19 1011.400 36.6 18 8.1 0.6 SSE   1.03 232.56
2008-Jul-24 15:05:18 1011.100 35.8 17 6.4       1.03 232.56
2008-Jul-24 16:05:16 1011.500 35.7 13 2.4 2.5 SSW     232.56
2008-Jul-24 17:05:27 1011.200 35.9 14 3.5 1.4 S     232.56
2008-Jul-24 18:05:18 1011.200 35.1 15 3.9 1.4 SSE     232.56
2008-Jul-24 19:05:19 1011.100 34.8 16 4.6 1.0 NE     232.56
2008-Jul-24 20:05:18 1011.100 32.6 17 3.9         232.56
2008-Jul-24 21:05:22 1011.500 27.8 22 4.0         232.56
2008-Jul-24 22:05:14 1012.200 22.9 31 4.8         232.56
2008-Jul-24 23:05:13 1012.900 19.4 39 5.0         232.56

Temperatura Máxima:36°    Temperatura Mínima:13°
Presión Máxima:1014.600 Hpa    Presión Mínima:1011.100 Hpa


Volver